createdAt,value
2023-03-16T00:02:20.676Z,27.45
2023-03-16T00:04:48.221Z,27.13
2023-03-16T00:07:15.953Z,26.85
2023-03-16T00:09:43.764Z,26.63
2023-03-16T00:12:15.898Z,26.80
2023-03-16T00:17:19.037Z,28.13
2023-03-16T00:19:55.603Z,117.82
2023-03-16T00:22:25.681Z,50.00
2023-03-16T00:24:54.075Z,105.00
2023-03-16T00:27:23.171Z,97.72
2023-03-16T00:29:56.393Z,369.42
2023-03-16T00:32:29.661Z,250.40
2023-03-16T00:34:57.802Z,67.88
2023-03-16T00:37:26.491Z,76.13
2023-03-16T00:39:58.032Z,52.50
2023-03-16T00:42:28.222Z,35.25
2023-03-16T00:44:57.172Z,33.15
2023-03-16T00:47:26.541Z,43.35
2023-03-16T00:49:54.736Z,56.47
2023-03-16T00:52:23.483Z,100.55
2023-03-16T00:54:53.078Z,114.15
2023-03-16T00:57:21.721Z,68.90
2023-03-16T00:59:49.340Z,82.60
2023-03-16T01:02:19.932Z,94.22
2023-03-16T01:04:47.473Z,165.10
2023-03-16T01:07:15.126Z,129.50
2023-03-16T01:09:43.306Z,51.60
2023-03-16T01:12:17.449Z,34.67
2023-03-16T01:14:46.289Z,32.42
2023-03-16T01:17:14.872Z,28.30
2023-03-16T01:19:43.792Z,27.00
2023-03-16T01:22:12.070Z,25.92
2023-03-16T01:24:41.039Z,22.98
2023-03-16T01:27:08.902Z,24.13
2023-03-16T01:29:37.532Z,22.35
2023-03-16T01:32:05.186Z,26.13
2023-03-16T01:34:34.555Z,58.65
2023-03-16T01:37:02.412Z,59.47
2023-03-16T01:39:37.894Z,27.38
2023-03-16T01:42:06.241Z,28.55
2023-03-16T01:44:54.473Z,33.92
2023-03-16T01:47:23.576Z,32.70
2023-03-16T01:49:55.004Z,162.20
2023-03-16T01:52:30.414Z,48.25
2023-03-16T01:55:09.735Z,27.15
2023-03-16T01:57:42.679Z,24.63
2023-03-16T02:00:20.965Z,43.53
2023-03-16T02:03:10.639Z,26.20
2023-03-16T02:06:11.510Z,68.75
2023-03-16T02:08:45.380Z,33.55
2023-03-16T02:11:18.066Z,49.05
2023-03-16T02:13:59.084Z,39.97
2023-03-16T02:16:26.868Z,25.92
2023-03-16T02:18:54.522Z,25.95
2023-03-16T02:21:41.657Z,23.58
2023-03-16T02:24:08.900Z,27.50
2023-03-16T02:26:47.712Z,26.73
2023-03-16T02:29:47.321Z,27.75
2023-03-16T02:32:15.831Z,26.02
2023-03-16T02:34:43.548Z,39.88
2023-03-16T02:37:13.200Z,47.03
2023-03-16T02:39:44.172Z,61.75
2023-03-16T02:42:18.280Z,35.38
2023-03-16T02:44:50.926Z,33.80
2023-03-16T02:47:36.863Z,36.13
2023-03-16T02:50:06.753Z,33.45
2023-03-16T02:52:36.134Z,35.45
2023-03-16T02:55:04.758Z,33.95
2023-03-16T02:57:32.376Z,34.60
2023-03-16T03:02:48.079Z,27.95
2023-03-16T03:05:15.471Z,28.98
2023-03-16T03:07:43.192Z,30.67
2023-03-16T03:10:11.189Z,28.52
2023-03-16T03:12:38.798Z,30.00
2023-03-16T03:15:09.327Z,30.38
2023-03-16T03:17:46.258Z,28.98
2023-03-16T03:20:18.202Z,26.67
2023-03-16T03:22:50.345Z,27.88
2023-03-16T03:25:18.656Z,26.30
2023-03-16T03:27:47.599Z,29.27
2023-03-16T03:30:19.937Z,51.97
2023-03-16T03:32:49.100Z,36.40
2023-03-16T03:35:18.916Z,40.97
2023-03-16T03:37:46.414Z,29.95
2023-03-16T03:40:17.802Z,29.13
2023-03-16T03:42:48.869Z,26.80
2023-03-16T03:45:16.823Z,29.15
2023-03-16T03:47:44.918Z,27.67
2023-03-16T03:50:17.589Z,45.40
2023-03-16T03:53:02.888Z,40.47
2023-03-16T03:55:32.866Z,29.70
2023-03-16T03:58:01.518Z,30.98
2023-03-16T04:00:29.669Z,38.60
2023-03-16T04:02:57.459Z,31.48
2023-03-16T04:05:31.927Z,29.13
2023-03-16T04:07:59.520Z,29.02
2023-03-16T04:10:29.582Z,30.38
2023-03-16T04:12:58.220Z,29.48
2023-03-16T04:15:26.902Z,28.40
2023-03-16T04:18:14.639Z,29.20
2023-03-16T04:20:42.902Z,26.75
2023-03-16T04:23:14.141Z,28.13
2023-03-16T04:25:42.282Z,29.65
2023-03-16T04:28:10.143Z,28.52
2023-03-16T04:30:39.970Z,30.38
2023-03-16T04:33:38.713Z,31.77
2023-03-16T04:36:07.508Z,31.67
2023-03-16T04:38:37.536Z,33.30
2023-03-16T04:41:06.507Z,32.20
2023-03-16T04:43:37.961Z,31.20
2023-03-16T04:46:12.322Z,31.75
2023-03-16T04:48:40.227Z,34.75
2023-03-16T04:51:07.471Z,32.28
2023-03-16T04:53:39.099Z,35.92
2023-03-16T04:56:18.368Z,35.67
2023-03-16T04:58:50.291Z,37.20
2023-03-16T05:01:20.344Z,39.58
2023-03-16T05:03:49.856Z,38.28
2023-03-16T05:06:17.813Z,39.92
2023-03-16T05:08:46.134Z,41.17
2023-03-16T05:11:13.317Z,43.55
2023-03-16T05:13:49.087Z,42.90
2023-03-16T05:16:16.751Z,42.47
2023-03-16T05:18:44.196Z,41.22
2023-03-16T05:21:12.743Z,51.85
2023-03-16T05:23:56.396Z,47.88
2023-03-16T05:26:25.703Z,58.53
2023-03-16T05:28:53.448Z,52.63
2023-03-16T05:31:27.458Z,48.83
2023-03-16T05:33:58.856Z,50.78
2023-03-16T05:36:26.371Z,46.97
2023-03-16T05:38:59.366Z,47.00
2023-03-16T05:41:35.046Z,52.42
2023-03-16T05:44:12.321Z,47.13
2023-03-16T05:46:57.771Z,49.40
2023-03-16T05:49:26.230Z,57.33
2023-03-16T05:51:54.827Z,57.03
2023-03-16T05:54:22.855Z,59.85
2023-03-16T05:56:50.161Z,62.35
2023-03-16T05:59:18.372Z,67.63
2023-03-16T06:01:51.137Z,67.40
2023-03-16T06:04:21.855Z,71.05
2023-03-16T06:06:49.500Z,72.97
2023-03-16T06:09:21.501Z,76.60
2023-03-16T06:11:48.858Z,78.20
2023-03-16T06:14:18.069Z,81.80
2023-03-16T06:16:46.073Z,79.35
2023-03-16T06:19:14.925Z,85.13
2023-03-16T06:21:43.000Z,87.35
2023-03-16T06:24:12.551Z,79.45
2023-03-16T06:26:39.674Z,78.15
2023-03-16T06:29:09.530Z,76.05
2023-03-16T06:31:38.389Z,81.65
2023-03-16T06:34:06.698Z,84.93
2023-03-16T06:36:34.265Z,80.72
2023-03-16T06:39:05.034Z,78.40
2023-03-16T06:41:36.906Z,77.95
2023-03-16T06:44:06.187Z,72.55
2023-03-16T06:46:36.738Z,74.63
2023-03-16T06:49:05.018Z,70.35
2023-03-16T06:51:33.288Z,67.20
2023-03-16T06:54:01.466Z,66.93
2023-03-16T06:56:29.119Z,67.70
2023-03-16T06:58:57.034Z,63.63
2023-03-16T07:01:24.354Z,63.58
2023-03-16T07:03:52.096Z,63.88
2023-03-16T07:06:24.800Z,61.50
2023-03-16T07:08:52.596Z,60.03
2023-03-16T07:11:23.513Z,57.95
2023-03-16T07:13:51.936Z,52.83
2023-03-16T07:16:22.140Z,58.13
2023-03-16T07:18:50.169Z,47.70
2023-03-16T07:21:20.834Z,57.50
2023-03-16T07:23:51.645Z,43.97
2023-03-16T07:26:24.597Z,45.47
2023-03-16T07:28:58.132Z,43.58
2023-03-16T07:31:26.370Z,43.92
2023-03-16T07:33:57.498Z,42.58
2023-03-16T07:36:42.909Z,41.08
2023-03-16T07:39:17.684Z,38.55
2023-03-16T07:41:45.224Z,40.53
2023-03-16T07:44:18.485Z,38.55
2023-03-16T07:46:49.618Z,36.72
2023-03-16T07:49:19.106Z,31.63
2023-03-16T07:51:49.720Z,37.53
2023-03-16T07:54:24.389Z,38.58
2023-03-16T07:56:51.941Z,35.22
2023-03-16T07:59:31.376Z,38.00
2023-03-16T08:02:00.155Z,36.50
2023-03-16T08:04:28.071Z,34.80
2023-03-16T08:07:00.195Z,34.42
2023-03-16T08:09:35.923Z,35.65
2023-03-16T08:12:06.622Z,32.15
2023-03-16T08:14:36.961Z,32.20
2023-03-16T08:17:13.433Z,30.73
2023-03-16T08:19:42.608Z,27.02
2023-03-16T08:22:12.415Z,29.42
2023-03-16T08:24:45.982Z,26.40
2023-03-16T08:27:16.202Z,29.23
2023-03-16T08:29:52.814Z,25.73
2023-03-16T08:32:21.509Z,27.15
2023-03-16T08:34:53.807Z,27.85
2023-03-16T08:37:22.182Z,27.63
2023-03-16T08:39:55.258Z,23.90
2023-03-16T08:42:23.664Z,23.48
2023-03-16T08:44:57.485Z,23.65
2023-03-16T08:47:26.771Z,21.60
2023-03-16T08:49:58.766Z,19.95
2023-03-16T08:52:26.180Z,22.33
2023-03-16T08:55:02.838Z,22.45
2023-03-16T08:57:32.844Z,18.90
2023-03-16T09:00:08.888Z,19.70
2023-03-16T09:02:38.745Z,18.92
2023-03-16T09:05:12.726Z,17.98
2023-03-16T09:07:40.915Z,20.65
2023-03-16T09:10:13.279Z,16.95
2023-03-16T09:12:41.266Z,17.23
2023-03-16T09:15:12.432Z,16.33
2023-03-16T09:17:41.734Z,14.05
2023-03-16T09:20:30.142Z,11.45
2023-03-16T09:22:58.875Z,11.63
2023-03-16T09:25:27.435Z,13.90
2023-03-16T09:27:55.777Z,11.85
2023-03-16T09:30:24.877Z,13.52
2023-03-16T09:32:52.508Z,12.50
2023-03-16T09:35:20.353Z,11.05
2023-03-16T09:38:04.665Z,11.55
2023-03-16T09:40:36.010Z,12.55
2023-03-16T09:43:20.825Z,12.13
2023-03-16T09:46:26.049Z,13.02
2023-03-16T09:48:56.633Z,12.65
2023-03-16T09:51:43.471Z,13.82
2023-03-16T09:54:49.567Z,14.07
2023-03-16T09:57:32.376Z,14.40
2023-03-16T10:00:34.480Z,14.15
2023-03-16T10:03:08.222Z,14.50
2023-03-16T10:05:38.627Z,12.25
2023-03-16T10:08:22.291Z,10.80
2023-03-16T10:11:18.701Z,10.23
2023-03-16T10:13:52.567Z,7.80
2023-03-16T10:16:32.733Z,8.85
2023-03-16T10:19:20.697Z,7.82
2023-03-16T10:21:52.655Z,8.15
2023-03-16T10:24:34.408Z,9.43
2023-03-16T10:27:06.029Z,9.95
2023-03-16T10:29:37.042Z,6.57
2023-03-16T10:32:17.232Z,6.90
2023-03-16T10:34:52.772Z,5.32
2023-03-16T10:37:21.493Z,6.07
2023-03-16T10:39:49.740Z,4.82
2023-03-16T10:42:21.365Z,5.70
2023-03-16T10:44:56.935Z,4.67
2023-03-16T10:47:30.245Z,5.25
2023-03-16T10:49:59.102Z,4.32
2023-03-16T10:52:43.460Z,4.40
2023-03-16T10:55:27.001Z,5.38
2023-03-16T10:57:56.317Z,6.20
2023-03-16T11:00:38.801Z,6.75
2023-03-16T11:03:25.132Z,5.18
2023-03-16T11:06:04.382Z,5.25
2023-03-16T11:08:35.940Z,5.93
2023-03-16T11:11:14.737Z,4.53
2023-03-16T11:13:48.393Z,4.63
2023-03-16T11:16:23.066Z,5.40
2023-03-16T11:19:05.976Z,3.85
2023-03-16T11:21:41.134Z,3.92
2023-03-16T11:24:23.044Z,5.88
2023-03-16T11:26:57.698Z,4.50
2023-03-16T11:29:35.779Z,4.25
2023-03-16T11:32:16.412Z,4.25
2023-03-16T11:34:45.023Z,4.10
2023-03-16T11:37:37.371Z,4.72
2023-03-16T11:40:20.602Z,4.85
2023-03-16T11:43:13.208Z,4.22
2023-03-16T11:46:11.488Z,4.30
2023-03-16T11:48:53.576Z,3.75
2023-03-16T11:51:43.316Z,3.03
2023-03-16T11:54:38.243Z,4.00
2023-03-16T11:57:25.641Z,4.40
2023-03-16T12:00:11.522Z,4.80
2023-03-16T12:02:45.203Z,3.95
2023-03-16T12:05:34.674Z,5.03
2023-03-16T12:08:40.202Z,3.30
2023-03-16T12:11:17.436Z,3.85
2023-03-16T12:14:01.474Z,3.28
2023-03-16T12:16:49.031Z,4.53
2023-03-16T12:19:57.195Z,3.95
2023-03-16T12:22:38.750Z,3.80
2023-03-16T12:25:22.082Z,3.25
2023-03-16T12:27:57.025Z,2.88
2023-03-16T12:30:37.001Z,4.00
2023-03-16T12:35:41.645Z,3.15
2023-03-16T12:38:36.698Z,3.50
2023-03-16T12:41:19.830Z,2.95
2023-03-16T12:44:22.537Z,3.25
2023-03-16T12:46:50.150Z,4.60
2023-03-16T12:49:21.130Z,4.20
2023-03-16T12:52:04.288Z,2.63
2023-03-16T12:54:33.490Z,4.03
2023-03-16T12:57:14.576Z,3.97
2023-03-16T12:59:50.729Z,3.67
2023-03-16T13:02:43.272Z,3.40
2023-03-16T13:05:17.776Z,4.32
2023-03-16T13:07:50.307Z,4.57
2023-03-16T13:10:28.837Z,3.80
2023-03-16T13:13:15.214Z,3.83
2023-03-16T13:15:47.424Z,3.90
2023-03-16T13:18:15.006Z,3.90
2023-03-16T13:20:48.443Z,3.58
2023-03-16T13:23:18.431Z,3.47
2023-03-16T13:26:03.498Z,3.70
2023-03-16T13:28:35.245Z,17.40
2023-03-16T13:31:28.691Z,6.25
2023-03-16T13:34:00.081Z,4.45
2023-03-16T13:36:29.850Z,3.97
2023-03-16T13:39:06.858Z,3.22
2023-03-16T13:41:34.585Z,3.17
2023-03-16T13:44:15.506Z,3.13
2023-03-16T13:46:43.182Z,3.88
2023-03-16T13:49:12.319Z,2.78
2023-03-16T13:51:39.854Z,3.20
2023-03-16T13:54:28.380Z,3.20
2023-03-16T13:57:00.387Z,3.30
2023-03-16T13:59:27.971Z,3.15
2023-03-16T14:01:58.498Z,3.60
2023-03-16T14:04:30.848Z,2.97
2023-03-16T14:07:01.961Z,4.20
2023-03-16T14:09:36.072Z,4.10
2023-03-16T14:12:03.779Z,2.83
2023-03-16T14:14:39.324Z,3.40
2023-03-16T14:17:16.230Z,4.10
2023-03-16T14:19:46.508Z,3.33
2023-03-16T14:22:19.336Z,3.30
2023-03-16T14:24:54.499Z,3.50
2023-03-16T14:27:40.587Z,5.57
2023-03-16T14:30:16.267Z,3.72
2023-03-16T14:32:58.297Z,3.50
2023-03-16T14:35:32.273Z,3.45
2023-03-16T14:38:23.277Z,3.58
2023-03-16T14:40:56.642Z,3.45
2023-03-16T14:43:30.655Z,5.07
2023-03-16T14:45:59.042Z,3.63
2023-03-16T14:48:26.880Z,4.15
2023-03-16T14:50:58.145Z,5.25
2023-03-16T14:53:28.421Z,5.53
2023-03-16T14:55:56.763Z,3.85
2023-03-16T14:58:24.626Z,3.90
2023-03-16T15:00:53.883Z,4.35
2023-03-16T15:03:33.199Z,4.13
2023-03-16T15:06:01.427Z,3.75
2023-03-16T15:08:32.210Z,3.88
2023-03-16T15:11:05.742Z,3.35
2023-03-16T15:13:39.738Z,5.25
2023-03-16T15:16:14.107Z,3.75
2023-03-16T15:18:42.709Z,3.40
2023-03-16T15:21:17.360Z,5.03
2023-03-16T15:23:45.200Z,3.45
2023-03-16T15:26:25.055Z,3.38
2023-03-16T15:28:52.711Z,2.80
2023-03-16T15:31:20.779Z,5.57
2023-03-16T15:33:48.063Z,4.38
2023-03-16T15:36:18.923Z,6.82
2023-03-16T15:38:48.404Z,4.85
2023-03-16T15:41:16.365Z,5.90
2023-03-16T15:43:45.614Z,9.65
2023-03-16T15:46:14.767Z,11.00
2023-03-16T15:48:42.238Z,21.00
2023-03-16T15:51:22.003Z,17.92
2023-03-16T15:53:55.621Z,8.52
2023-03-16T15:56:30.046Z,11.68
2023-03-16T15:59:01.006Z,4.57
2023-03-16T16:01:32.100Z,5.65
2023-03-16T16:03:59.926Z,7.40
2023-03-16T16:06:28.611Z,5.82
2023-03-16T16:08:56.017Z,10.82
2023-03-16T16:11:28.200Z,2.95
2023-03-16T16:13:57.497Z,5.22
2023-03-16T16:16:29.133Z,3.40
2023-03-16T16:18:56.964Z,9.35
2023-03-16T16:21:28.895Z,3.88
2023-03-16T16:23:56.792Z,3.38
2023-03-16T16:26:34.337Z,4.00
2023-03-16T16:29:18.459Z,5.53
2023-03-16T16:31:46.133Z,11.90
2023-03-16T16:34:14.956Z,9.18
2023-03-16T16:36:42.548Z,9.75
2023-03-16T16:39:10.277Z,7.95
2023-03-16T16:41:38.448Z,6.43
2023-03-16T16:44:13.567Z,14.20
2023-03-16T16:46:42.462Z,11.00
2023-03-16T16:49:12.709Z,10.00
2023-03-16T16:51:40.132Z,10.40
2023-03-16T16:54:19.689Z,6.90
2023-03-16T16:56:48.894Z,12.48
2023-03-16T16:59:18.908Z,5.15
2023-03-16T17:01:48.193Z,10.35
2023-03-16T17:04:18.555Z,10.73
2023-03-16T17:06:46.833Z,9.00
2023-03-16T17:09:14.369Z,6.95
2023-03-16T17:11:43.614Z,17.08
2023-03-16T17:14:17.053Z,15.93
2023-03-16T17:16:47.035Z,14.15
2023-03-16T17:19:23.317Z,14.32
2023-03-16T17:21:52.116Z,17.33
2023-03-16T17:24:19.449Z,10.30
2023-03-16T17:26:54.890Z,13.20
2023-03-16T17:29:26.122Z,12.60
2023-03-16T17:31:53.774Z,16.27
2023-03-16T17:34:26.706Z,19.10
2023-03-16T17:36:55.708Z,12.60
2023-03-16T17:39:25.981Z,23.08
2023-03-16T17:42:13.112Z,25.48
2023-03-16T17:44:43.704Z,20.25
2023-03-16T17:47:33.228Z,22.42
2023-03-16T17:50:01.085Z,41.60
2023-03-16T17:52:29.767Z,42.90
2023-03-16T17:54:57.298Z,39.05
2023-03-16T17:57:33.495Z,35.20
2023-03-16T18:00:02.277Z,33.60
2023-03-16T18:02:40.086Z,32.70
2023-03-16T18:05:35.059Z,35.88
2023-03-16T18:08:14.295Z,34.40
2023-03-16T18:10:42.090Z,34.80
2023-03-16T18:13:26.909Z,38.72
2023-03-16T18:15:55.870Z,35.47
2023-03-16T18:18:26.350Z,34.67
2023-03-16T18:20:56.186Z,33.28
2023-03-16T18:23:27.099Z,35.75
2023-03-16T18:25:56.161Z,37.70
2023-03-16T18:28:23.595Z,37.95
2023-03-16T18:30:52.823Z,41.40
2023-03-16T18:33:33.878Z,40.38
2023-03-16T18:36:04.906Z,41.75
2023-03-16T18:38:35.312Z,42.03
2023-03-16T18:41:22.710Z,53.33
2023-03-16T18:43:52.757Z,98.05
2023-03-16T18:46:35.655Z,65.57
2023-03-16T18:49:12.823Z,90.22
2023-03-16T18:51:40.441Z,72.10
2023-03-16T18:54:31.831Z,66.28
2023-03-16T18:57:00.078Z,64.75
2023-03-16T18:59:27.983Z,70.28
2023-03-16T19:01:55.569Z,54.88
2023-03-16T19:04:26.696Z,59.97
2023-03-16T19:06:55.281Z,72.13
2023-03-16T19:09:31.717Z,61.75
2023-03-16T19:11:59.370Z,53.05
2023-03-16T19:14:31.330Z,47.55
2023-03-16T19:16:59.011Z,32.13
2023-03-16T19:19:27.194Z,29.38
2023-03-16T19:22:02.352Z,28.73
2023-03-16T19:24:47.165Z,31.85
2023-03-16T19:27:25.552Z,33.17
2023-03-16T19:29:54.712Z,29.38
2023-03-16T19:32:22.994Z,26.90
2023-03-16T19:34:50.726Z,27.85
2023-03-16T19:37:19.809Z,26.45
2023-03-16T19:39:47.398Z,26.38
2023-03-16T19:42:30.882Z,25.33
2023-03-16T19:44:58.416Z,28.40
2023-03-16T19:47:31.019Z,26.50
2023-03-16T19:49:59.138Z,28.02
2023-03-16T19:52:28.292Z,28.88
2023-03-16T19:54:56.241Z,29.83
2023-03-16T19:57:24.155Z,32.75
2023-03-16T19:59:56.288Z,33.38
2023-03-16T20:02:34.956Z,34.28
2023-03-16T20:05:02.478Z,32.45
2023-03-16T20:07:29.684Z,30.40
2023-03-16T20:09:57.403Z,30.05
2023-03-16T20:12:27.613Z,30.30
2023-03-16T20:14:56.590Z,32.63
2023-03-16T20:17:27.034Z,31.00
2023-03-16T20:19:55.543Z,33.92
2023-03-16T20:22:25.190Z,32.75
2023-03-16T20:24:54.374Z,36.95
2023-03-16T20:27:24.222Z,38.55
2023-03-16T20:29:51.879Z,39.53
2023-03-16T20:32:31.523Z,36.00
2023-03-16T20:34:59.141Z,48.85
2023-03-16T20:37:29.040Z,43.80
2023-03-16T20:39:59.807Z,39.22
2023-03-16T20:42:32.097Z,36.72
2023-03-16T20:45:00.088Z,36.35
2023-03-16T20:47:27.900Z,39.22
2023-03-16T20:49:57.494Z,38.47
2023-03-16T20:52:30.085Z,45.03
2023-03-16T20:54:58.735Z,62.83
2023-03-16T20:57:27.721Z,97.25
2023-03-16T20:59:55.570Z,116.10
2023-03-16T21:02:35.810Z,130.00
2023-03-16T21:05:07.883Z,125.05
2023-03-16T21:07:35.062Z,166.35
2023-03-16T21:10:02.657Z,183.98
2023-03-16T21:12:33.522Z,90.45
2023-03-16T21:15:05.850Z,91.88
2023-03-16T21:17:37.090Z,93.07
2023-03-16T21:20:18.131Z,107.73
2023-03-16T21:22:46.032Z,148.43
2023-03-16T21:25:32.045Z,92.35
2023-03-16T21:28:02.512Z,62.53
2023-03-16T21:30:33.613Z,50.75
2023-03-16T21:33:01.995Z,39.13
2023-03-16T21:35:35.371Z,36.63
2023-03-16T21:38:15.668Z,36.28
2023-03-16T21:40:44.351Z,39.33
2023-03-16T21:43:12.253Z,41.05
2023-03-16T21:45:41.133Z,46.83
2023-03-16T21:48:15.615Z,52.22
2023-03-16T21:50:44.101Z,49.08
2023-03-16T21:53:25.780Z,41.78
2023-03-16T21:55:54.615Z,42.78
2023-03-16T21:58:23.562Z,72.70
2023-03-16T22:00:53.101Z,83.00
2023-03-16T22:03:32.915Z,104.88
2023-03-16T22:06:05.698Z,102.18
2023-03-16T22:08:34.521Z,127.28
2023-03-16T22:11:02.994Z,100.93
2023-03-16T22:13:30.270Z,68.07
2023-03-16T22:15:58.529Z,66.93
2023-03-16T22:18:36.790Z,48.50
2023-03-16T22:21:18.581Z,44.95
2023-03-16T22:23:46.017Z,45.20
2023-03-16T22:26:16.811Z,43.42
2023-03-16T22:28:46.492Z,40.95
2023-03-16T22:31:18.757Z,37.47
2023-03-16T22:33:48.697Z,39.10
2023-03-16T22:36:21.763Z,50.45
2023-03-16T22:39:03.275Z,53.38
2023-03-16T22:41:31.157Z,61.03
2023-03-16T22:43:59.592Z,51.70
2023-03-16T22:46:28.470Z,49.90
2023-03-16T22:48:57.370Z,49.40
2023-03-16T22:51:37.036Z,51.83
2023-03-16T22:54:12.565Z,58.05
2023-03-16T22:56:41.783Z,60.50
2023-03-16T22:59:13.810Z,54.35
2023-03-16T23:01:43.868Z,53.75
2023-03-16T23:04:16.772Z,60.55
2023-03-16T23:06:44.684Z,55.20
2023-03-16T23:09:16.160Z,57.75
2023-03-16T23:11:45.892Z,68.22
2023-03-16T23:14:15.227Z,60.17
2023-03-16T23:16:43.552Z,56.55
2023-03-16T23:19:34.406Z,62.70
2023-03-16T23:22:06.612Z,67.85
2023-03-16T23:24:35.105Z,75.93
2023-03-16T23:27:04.271Z,70.10
2023-03-16T23:29:31.863Z,74.68
2023-03-16T23:31:59.399Z,75.85
2023-03-16T23:34:26.597Z,298.25
2023-03-16T23:36:54.079Z,96.72
2023-03-16T23:39:21.400Z,60.20
2023-03-16T23:41:50.217Z,65.88
2023-03-16T23:44:24.653Z,63.42
2023-03-16T23:46:52.529Z,74.68
2023-03-16T23:49:32.809Z,70.90
2023-03-16T23:52:01.659Z,58.10
2023-03-16T23:54:31.299Z,68.75
2023-03-16T23:56:59.069Z,69.85
2023-03-16T23:59:27.495Z,69.57
